createdAt,value
2024-02-08T00:02:51.905Z,100117.41
2024-02-08T00:07:55.792Z,100176.41
2024-02-08T00:12:59.612Z,100171.38
2024-02-08T00:18:03.727Z,100189.81
2024-02-08T00:23:11.396Z,100178.66
2024-02-08T00:28:15.750Z,100156.59
2024-02-08T00:33:19.527Z,100181.00
2024-02-08T00:38:23.408Z,100175.13
2024-02-08T00:43:27.386Z,100175.97
2024-02-08T00:48:31.508Z,100192.56
2024-02-08T00:53:35.481Z,100183.91
2024-02-08T00:58:39.211Z,100128.97
2024-02-08T01:03:43.049Z,100163.53
2024-02-08T01:08:46.890Z,100167.63
2024-02-08T01:13:54.100Z,100163.63
2024-02-08T01:18:58.327Z,100155.31
2024-02-08T01:24:02.155Z,100167.03
2024-02-08T01:29:09.115Z,100172.81
2024-02-08T01:34:14.638Z,100174.84
2024-02-08T01:39:24.755Z,100182.47
2024-02-08T01:44:28.432Z,100189.28
2024-02-08T01:49:34.345Z,100175.84
2024-02-08T01:54:46.052Z,100187.81
2024-02-08T01:59:54.957Z,100195.22
2024-02-08T02:04:59.642Z,100175.84
2024-02-08T02:10:04.197Z,100131.53
2024-02-08T02:15:08.494Z,100234.53
2024-02-08T02:20:20.705Z,100229.50
2024-02-08T02:25:28.439Z,100206.84
2024-02-08T02:30:34.582Z,100179.38
2024-02-08T02:35:38.313Z,100203.22
2024-02-08T02:40:43.554Z,100193.25
2024-02-08T02:45:47.206Z,100183.25
2024-02-08T02:50:53.697Z,100189.25
2024-02-08T02:56:01.068Z,100186.66
2024-02-08T03:01:07.477Z,100161.44
2024-02-08T03:06:17.910Z,100153.88
2024-02-08T03:11:22.925Z,100154.72
2024-02-08T03:16:28.418Z,100155.59
2024-02-08T03:21:37.830Z,100156.50
2024-02-08T03:26:42.695Z,100152.31
2024-02-08T03:31:48.714Z,100151.53
2024-02-08T03:36:52.669Z,100132.97
2024-02-08T03:42:06.633Z,100157.47
2024-02-08T03:47:10.817Z,100140.59
2024-02-08T03:52:15.079Z,100137.19
2024-02-08T03:57:20.735Z,100120.28
2024-02-08T04:02:24.549Z,100130.28
2024-02-08T04:07:47.579Z,100110.66
2024-02-08T04:13:10.341Z,100137.56
2024-02-08T04:18:32.378Z,100138.09
2024-02-08T04:23:54.514Z,100142.75
2024-02-08T04:29:17.073Z,100138.09
2024-02-08T04:34:39.936Z,100145.09
2024-02-08T04:40:02.326Z,100142.03
2024-02-08T04:45:25.330Z,100119.63
2024-02-08T04:50:47.362Z,100161.00
2024-02-08T04:55:51.115Z,100146.44
2024-02-08T05:00:55.032Z,100166.88
2024-02-08T05:05:59.782Z,100168.69
2024-02-08T05:11:05.535Z,100188.16
2024-02-08T05:16:16.186Z,100201.44
2024-02-08T05:21:20.067Z,100198.75
2024-02-08T05:26:27.701Z,100222.75
2024-02-08T05:31:31.924Z,100239.28
2024-02-08T05:36:41.701Z,100237.28
2024-02-08T05:41:46.336Z,100239.56
2024-02-08T05:46:51.574Z,100244.47
2024-02-08T05:51:57.237Z,100263.88
2024-02-08T05:57:05.276Z,100254.25
2024-02-08T06:02:17.409Z,100252.22
2024-02-08T06:07:22.808Z,100237.34
2024-02-08T06:12:59.169Z,100260.09
2024-02-08T06:18:06.425Z,100251.88
2024-02-08T06:23:25.033Z,100264.09
2024-02-08T06:28:30.830Z,100257.72
2024-02-08T06:33:56.328Z,100255.19
2024-02-08T06:39:22.228Z,100244.38
2024-02-08T06:44:38.751Z,100246.59
2024-02-08T06:50:14.744Z,100240.53
2024-02-08T06:55:38.353Z,100250.25
2024-02-08T07:01:00.390Z,100267.06
2024-02-08T07:06:22.814Z,100287.25
2024-02-08T07:11:44.781Z,100295.50
2024-02-08T07:17:07.131Z,100298.53
2024-02-08T07:22:29.234Z,100290.50
2024-02-08T07:27:51.272Z,100306.22
2024-02-08T07:33:13.733Z,100306.53
2024-02-08T07:38:36.459Z,100329.13
2024-02-08T07:43:45.980Z,100318.28
2024-02-08T07:48:50.000Z,100316.97
2024-02-08T07:53:55.984Z,100336.91
2024-02-08T07:59:08.348Z,100334.66
2024-02-08T08:04:14.653Z,100329.44
2024-02-08T08:09:21.259Z,100339.75
2024-02-08T08:14:40.869Z,100336.84
2024-02-08T08:19:48.696Z,100340.75
2024-02-08T08:25:14.354Z,100305.94
2024-02-08T08:30:33.100Z,100344.16
2024-02-08T08:35:56.974Z,100343.88
2024-02-08T08:41:17.153Z,100357.47
2024-02-08T08:46:23.157Z,100350.59
2024-02-08T08:51:33.042Z,100357.47
2024-02-08T08:56:36.880Z,100357.66
2024-02-08T09:01:42.544Z,100382.41
2024-02-08T09:06:49.830Z,100379.78
2024-02-08T09:11:59.828Z,100401.41
2024-02-08T09:17:24.111Z,100406.66
2024-02-08T09:22:36.080Z,100416.22
2024-02-08T09:27:40.729Z,100427.50
2024-02-08T09:32:47.118Z,100425.75
2024-02-08T09:37:50.774Z,100400.00
2024-02-08T09:42:58.251Z,100409.28
2024-02-08T09:48:10.955Z,100416.28
2024-02-08T09:53:30.414Z,100428.44
2024-02-08T09:59:04.783Z,100446.66
2024-02-08T10:04:19.680Z,100434.31
2024-02-08T10:09:39.038Z,100465.97
2024-02-08T10:14:44.117Z,100476.28
2024-02-08T10:20:30.888Z,100492.69
2024-02-08T10:25:53.119Z,100484.06
2024-02-08T10:31:14.582Z,100485.69
2024-02-08T10:36:23.307Z,100484.84
2024-02-08T10:41:37.863Z,100484.91
2024-02-08T10:46:44.471Z,100498.06
2024-02-08T10:51:49.892Z,100501.75
2024-02-08T10:57:17.580Z,100496.03
2024-02-08T11:02:50.674Z,100496.13
2024-02-08T11:07:55.593Z,100515.09
2024-02-08T11:13:04.380Z,100518.59
2024-02-08T11:18:29.646Z,100513.56
2024-02-08T11:23:48.093Z,100513.84
2024-02-08T11:29:03.520Z,100503.84
2024-02-08T11:34:26.225Z,100500.66
2024-02-08T11:39:30.024Z,100498.44
2024-02-08T11:44:45.720Z,100500.28
2024-02-08T11:50:03.924Z,100505.69
2024-02-08T11:55:12.569Z,100506.09
2024-02-08T12:00:20.153Z,100519.19
2024-02-08T12:05:27.006Z,100509.91
2024-02-08T12:10:31.219Z,100520.38
2024-02-08T12:15:38.090Z,100517.75
2024-02-08T12:20:45.673Z,100529.03
2024-02-08T12:25:57.773Z,100528.38
2024-02-08T12:31:03.166Z,100517.50
2024-02-08T12:36:07.474Z,100530.31
2024-02-08T12:41:13.844Z,100528.69
2024-02-08T12:46:18.295Z,100489.50
2024-02-08T12:51:25.076Z,100521.72
2024-02-08T12:56:33.449Z,100469.69
2024-02-08T13:01:46.164Z,100526.38
2024-02-08T13:06:53.837Z,100530.16
2024-02-08T13:12:19.350Z,100534.97
2024-02-08T13:17:27.998Z,100515.91
2024-02-08T13:22:34.996Z,100524.56
2024-02-08T13:27:40.575Z,100531.56
2024-02-08T13:32:46.869Z,100531.59
2024-02-08T13:37:53.170Z,100531.88
2024-02-08T13:43:00.980Z,100522.91
2024-02-08T13:48:07.307Z,100507.44
2024-02-08T13:53:17.068Z,100533.25
2024-02-08T13:58:27.806Z,100531.19
2024-02-08T14:03:37.070Z,100467.53
2024-02-08T14:08:48.961Z,100526.13
2024-02-08T14:14:00.503Z,100529.72
2024-02-08T14:19:04.454Z,100531.56
2024-02-08T14:24:13.744Z,100517.00
2024-02-08T14:29:17.577Z,100522.06
2024-02-08T14:34:28.375Z,100523.53
2024-02-08T14:39:37.000Z,100513.03
2024-02-08T14:44:46.486Z,100529.28
2024-02-08T14:49:59.519Z,100520.94
2024-02-08T14:55:23.337Z,100518.34
2024-02-08T15:00:31.097Z,100503.09
2024-02-08T15:05:50.966Z,100497.75
2024-02-08T15:11:13.937Z,100494.19
2024-02-08T15:16:24.204Z,100496.78
2024-02-08T15:21:37.753Z,100487.38
2024-02-08T15:27:06.627Z,100477.78
2024-02-08T15:32:19.988Z,100480.25
2024-02-08T15:37:34.590Z,100455.16
2024-02-08T15:42:41.864Z,100492.22
2024-02-08T15:48:04.025Z,100484.28
2024-02-08T15:53:20.927Z,100466.25
2024-02-08T15:58:28.266Z,100450.78
2024-02-08T16:03:41.999Z,100453.28
2024-02-08T16:08:48.818Z,100464.84
2024-02-08T16:13:59.082Z,100445.22
2024-02-08T16:19:21.939Z,100445.94
2024-02-08T16:24:25.986Z,100449.00
2024-02-08T16:29:45.426Z,100442.06
2024-02-08T16:34:52.719Z,100450.44
2024-02-08T16:40:16.583Z,100447.69
2024-02-08T16:45:20.508Z,100448.44
2024-02-08T16:50:36.788Z,100450.03
2024-02-08T16:55:48.785Z,100443.13
2024-02-08T17:01:04.830Z,100393.28
2024-02-08T17:06:20.492Z,100435.94
2024-02-08T17:11:26.073Z,100431.69
2024-02-08T17:16:32.468Z,100430.19
2024-02-08T17:21:52.089Z,100425.31
2024-02-08T17:27:04.700Z,100416.03
2024-02-08T17:32:14.547Z,100423.81
2024-02-08T17:37:32.299Z,100416.19
2024-02-08T17:42:36.461Z,100406.78
2024-02-08T17:47:46.029Z,100408.72
2024-02-08T17:52:52.687Z,100416.50
2024-02-08T17:57:58.048Z,100404.78
2024-02-08T18:03:02.769Z,100404.09
2024-02-08T18:08:08.961Z,100398.41
2024-02-08T18:13:12.952Z,100399.44
2024-02-08T18:18:17.095Z,100392.00
2024-02-08T18:23:21.738Z,100397.41
2024-02-08T18:28:27.481Z,100402.75
2024-02-08T18:33:34.264Z,100396.41
2024-02-08T18:38:38.532Z,100396.72
2024-02-08T18:43:42.465Z,100395.25
2024-02-08T18:48:47.239Z,100394.38
2024-02-08T18:53:51.871Z,100391.78
2024-02-08T18:58:55.812Z,100386.50
2024-02-08T19:03:59.681Z,100376.91
2024-02-08T19:09:05.625Z,100333.72
2024-02-08T19:14:10.447Z,100365.50
2024-02-08T19:19:15.226Z,100362.13
2024-02-08T19:24:19.283Z,100351.91
2024-02-08T19:29:26.074Z,100334.75
2024-02-08T19:34:33.068Z,100328.69
2024-02-08T19:39:38.429Z,100327.47
2024-02-08T19:44:44.272Z,100317.75
2024-02-08T19:49:48.814Z,100295.44
2024-02-08T19:54:58.789Z,100296.34
2024-02-08T20:00:02.475Z,100292.84
2024-02-08T20:05:09.905Z,100278.25
2024-02-08T20:10:16.734Z,100273.16
2024-02-08T20:15:29.823Z,100275.81
2024-02-08T20:20:36.004Z,100257.19
2024-02-08T20:25:41.179Z,100247.06
2024-02-08T20:30:58.039Z,100268.03
2024-02-08T20:36:10.334Z,100261.00
2024-02-08T20:41:14.067Z,100246.09
2024-02-08T20:46:18.243Z,100233.06
2024-02-08T20:51:23.886Z,100211.59
2024-02-08T20:56:30.645Z,100219.66
2024-02-08T21:01:37.842Z,100220.28
2024-02-08T21:06:44.469Z,100208.94
2024-02-08T21:11:48.353Z,100205.50
2024-02-08T21:16:55.745Z,100203.06
2024-02-08T21:22:00.062Z,100191.19
2024-02-08T21:27:08.537Z,100198.88
2024-02-08T21:32:12.404Z,100208.31
2024-02-08T21:37:16.372Z,100198.94
2024-02-08T21:42:21.528Z,100175.06
2024-02-08T21:47:28.796Z,100182.91
2024-02-08T21:52:32.456Z,100197.69
2024-02-08T21:57:36.468Z,100186.78
2024-02-08T22:02:41.950Z,100174.06
2024-02-08T22:07:49.508Z,100173.13
2024-02-08T22:12:53.325Z,100174.75
2024-02-08T22:17:58.711Z,100171.38
2024-02-08T22:23:02.655Z,100145.03
2024-02-08T22:28:10.817Z,100158.03
2024-02-08T22:33:16.020Z,100143.59
2024-02-08T22:38:21.194Z,100142.16
2024-02-08T22:43:25.433Z,100126.91
2024-02-08T22:48:29.148Z,100106.50
2024-02-08T22:53:32.675Z,100108.13
2024-02-08T22:58:36.457Z,100087.72
2024-02-08T23:03:40.170Z,100087.94
2024-02-08T23:08:45.774Z,100083.75
2024-02-08T23:13:49.505Z,100089.84
2024-02-08T23:18:53.373Z,100066.06
2024-02-08T23:23:57.557Z,100068.72
2024-02-08T23:29:01.087Z,100075.47
2024-02-08T23:34:05.418Z,100070.16
2024-02-08T23:39:09.616Z,100068.13
2024-02-08T23:44:13.249Z,100064.56
2024-02-08T23:49:17.230Z,100045.03
2024-02-08T23:54:20.981Z,100050.81
2024-02-08T23:59:24.761Z,100045.69
